createdAt,value
2019-05-16T00:04:40.642Z,8.4
2019-05-16T00:09:42.874Z,8.3
2019-05-16T00:14:45.185Z,8.2
2019-05-16T00:19:48.417Z,8.1
2019-05-16T00:24:49.728Z,8.1
2019-05-16T00:29:52.113Z,8
2019-05-16T00:34:54.319Z,8
2019-05-16T00:39:58.630Z,8
2019-05-16T00:44:58.870Z,7.9
2019-05-16T00:50:01.286Z,7.9
2019-05-16T00:55:03.546Z,7.7
2019-05-16T01:00:08.122Z,7.7
2019-05-16T01:05:08.649Z,7.6
2019-05-16T01:10:10.512Z,7.6
2019-05-16T01:15:12.857Z,7.6
2019-05-16T01:20:15.073Z,7.5
2019-05-16T01:25:19.291Z,7.4
2019-05-16T01:30:19.760Z,7.4
2019-05-16T01:35:21.852Z,7.4
2019-05-16T01:40:24.143Z,7.4
2019-05-16T01:45:27.793Z,7.4
2019-05-16T01:50:28.751Z,7.3
2019-05-16T01:55:30.998Z,7.3
2019-05-16T02:00:37.001Z,7.3
2019-05-16T02:05:35.648Z,7.2
2019-05-16T02:10:38.111Z,7.2
2019-05-16T02:15:40.562Z,7.1
2019-05-16T02:20:42.503Z,7.1
2019-05-16T02:25:44.839Z,7.2
2019-05-16T02:30:50.946Z,7.1
2019-05-16T02:35:54.683Z,7
2019-05-16T02:40:55.260Z,6.9
2019-05-16T02:45:53.979Z,6.9
2019-05-16T02:50:56.310Z,6.9
2019-05-16T02:56:01.383Z,6.8
2019-05-16T03:01:01.869Z,6.8
2019-05-16T03:06:03.131Z,6.7
2019-05-16T03:11:05.543Z,6.7
2019-05-16T03:16:11.411Z,6.6
2019-05-16T03:21:11.186Z,6.6
2019-05-16T03:26:12.474Z,6.5
2019-05-16T03:31:15.846Z,6.4
2019-05-16T03:36:17.055Z,6.4
2019-05-16T03:41:21.540Z,6.3
2019-05-16T03:46:21.792Z,6.3
2019-05-16T03:51:23.828Z,6.2
2019-05-16T03:56:26.124Z,6.2
2019-05-16T04:01:31.230Z,6.2
2019-05-16T04:06:31.248Z,6.2
2019-05-16T04:11:33.032Z,6.2
2019-05-16T04:16:35.202Z,6.1
2019-05-16T04:21:37.596Z,6.1
2019-05-16T04:26:41.210Z,6.1
2019-05-16T04:31:42.145Z,6.2
2019-05-16T04:36:44.407Z,6.3
2019-05-16T04:41:46.749Z,6.4
2019-05-16T04:46:51.025Z,6.5
2019-05-16T04:51:51.805Z,6.8
2019-05-16T04:56:53.697Z,6.9
2019-05-16T05:01:55.990Z,7
2019-05-16T05:07:00.517Z,7.2
2019-05-16T05:12:04.054Z,7.5
2019-05-16T05:17:05.263Z,7.7
2019-05-16T05:22:05.095Z,7.9
2019-05-16T05:27:07.376Z,8.1
2019-05-16T05:32:14.315Z,8.4
2019-05-16T05:37:12.683Z,8.6
2019-05-16T05:42:14.231Z,8.8
2019-05-16T05:47:16.711Z,9.1
2019-05-16T05:52:20.826Z,9.5
2019-05-16T05:57:21.163Z,9.8
2019-05-16T06:02:23.464Z,10
2019-05-16T06:07:25.702Z,10.3
2019-05-16T06:12:30.330Z,10.7
2019-05-16T06:17:30.813Z,11.1
2019-05-16T06:22:32.619Z,11.4
2019-05-16T06:27:34.840Z,11.8
2019-05-16T06:32:39.458Z,12
2019-05-16T06:37:40.583Z,12.3
2019-05-16T06:42:41.858Z,12.5
2019-05-16T06:47:44.101Z,12.7
2019-05-16T06:52:46.439Z,13.1
2019-05-16T06:57:50.331Z,13.2
2019-05-16T07:02:51.158Z,13.1
2019-05-16T07:07:53.340Z,13.4
2019-05-16T07:12:55.765Z,13.7
2019-05-16T07:17:59.745Z,14
2019-05-16T07:23:00.713Z,14.3
2019-05-16T07:28:02.659Z,14.8
2019-05-16T07:33:05.086Z,14.9
2019-05-16T07:38:06.984Z,15.2
2019-05-16T07:43:10.734Z,15.2
2019-05-16T07:48:11.596Z,15.4
2019-05-16T07:53:13.888Z,15.7
2019-05-16T07:58:16.423Z,15.7
2019-05-16T08:03:19.987Z,16.1
2019-05-16T08:08:24.226Z,16.5
2019-05-16T08:13:23.177Z,16.799999
2019-05-16T08:18:25.379Z,16.700001
2019-05-16T08:23:29.751Z,16.700001
2019-05-16T08:28:30.994Z,17.1
2019-05-16T08:33:32.385Z,16.9
2019-05-16T08:38:34.525Z,16.9
2019-05-16T08:43:36.852Z,17.299999
2019-05-16T08:48:42.243Z,17.5
2019-05-16T08:53:43.235Z,17.5
2019-05-16T08:58:43.753Z,18
2019-05-16T09:03:46.055Z,18.200001
2019-05-16T09:08:50.137Z,18.4
2019-05-16T09:13:50.575Z,18.200001
2019-05-16T09:18:52.961Z,18.5
2019-05-16T09:23:57.585Z,18.4
2019-05-16T09:28:57.719Z,18.6
2019-05-16T09:33:59.883Z,19.299999
2019-05-16T09:39:02.271Z,19.6
2019-05-16T09:44:04.567Z,19.299999
2019-05-16T09:49:16.739Z,19.200001
2019-05-16T09:54:08.952Z,19.4
2019-05-16T09:59:11.245Z,19.6
2019-05-16T10:04:13.557Z,20.200001
2019-05-16T10:09:17.667Z,19.799999
2019-05-16T10:14:18.263Z,19.200001
2019-05-16T10:19:20.545Z,19.6
2019-05-16T10:24:22.875Z,19.700001
2019-05-16T10:29:27.388Z,19.4
2019-05-16T10:34:27.301Z,20
2019-05-16T10:39:29.933Z,20.5
2019-05-16T10:44:32.182Z,21
2019-05-16T10:49:37.903Z,20.9
2019-05-16T10:54:37.081Z,21.299999
2019-05-16T10:59:58.014Z,21.200001
2019-05-16T11:00:16.157Z,21.200001
2019-05-16T11:04:53.626Z,21
2019-05-16T11:09:54.758Z,20.9
2019-05-16T11:14:47.782Z,21
2019-05-16T11:19:48.017Z,21.700001
2019-05-16T11:24:50.216Z,21.700001
2019-05-16T11:29:52.751Z,21.5
2019-05-16T11:34:55.090Z,21.6
2019-05-16T11:39:57.244Z,21.9
2019-05-16T11:44:59.531Z,21.9
2019-05-16T11:50:01.808Z,22.4
2019-05-16T11:55:07.184Z,21.9
2019-05-16T12:00:07.935Z,20.6
2019-05-16T12:05:09.049Z,20
2019-05-16T12:10:10.887Z,20.1
2019-05-16T12:15:16.226Z,20.799999
2019-05-16T12:20:16.720Z,21
2019-05-16T12:25:17.781Z,21.4
2019-05-16T12:30:20.097Z,20.700001
2019-05-16T12:35:22.387Z,20.799999
2019-05-16T12:40:26.828Z,19.5
2019-05-16T12:45:27.655Z,19.700001
2019-05-16T12:50:29.230Z,20.299999
2019-05-16T12:55:31.623Z,21.4
2019-05-16T13:00:33.907Z,21.9
2019-05-16T13:05:37.703Z,22
2019-05-16T13:10:38.491Z,20.4
2019-05-16T13:15:42.457Z,19.700001
2019-05-16T13:20:46.541Z,19.5
2019-05-16T13:25:47.831Z,19.5
2019-05-16T13:30:47.607Z,19.200001
2019-05-16T13:35:50.928Z,19.1
2019-05-16T13:40:52.278Z,18.799999
2019-05-16T13:45:54.648Z,18.9
2019-05-16T13:51:10.633Z,18.6
2019-05-16T13:55:59.383Z,18
2019-05-16T14:01:01.483Z,17.4
2019-05-16T14:06:03.628Z,17.200001
2019-05-16T14:11:09.903Z,18.4
2019-05-16T14:16:08.327Z,19.9
2019-05-16T14:21:10.717Z,20.5
2019-05-16T14:26:12.992Z,21.299999
2019-05-16T14:31:17.275Z,21.5
2019-05-16T14:36:17.415Z,21.299999
2019-05-16T14:41:20.027Z,21
2019-05-16T14:46:22.062Z,21
2019-05-16T14:51:26.935Z,20.700001
2019-05-16T14:56:27.323Z,20.700001
2019-05-16T15:01:28.893Z,20.5
2019-05-16T15:06:31.216Z,20.5
2019-05-16T15:11:35.013Z,20.200001
2019-05-16T15:16:35.898Z,20
2019-05-16T15:21:38.188Z,19.700001
2019-05-16T15:26:40.485Z,19.700001
2019-05-16T15:31:42.778Z,19.4
2019-05-16T15:36:46.684Z,19.1
2019-05-16T15:41:47.453Z,19
2019-05-16T15:46:49.546Z,19.1
2019-05-16T15:51:51.869Z,19
2019-05-16T15:56:54.166Z,18.799999
2019-05-16T16:01:56.540Z,18.799999
2019-05-16T16:06:58.781Z,18.6
2019-05-16T16:12:01.016Z,18.4
2019-05-16T16:17:03.327Z,18.1
2019-05-16T16:22:07.684Z,18.1
2019-05-16T16:27:07.950Z,18.1
2019-05-16T16:32:10.142Z,17.9
2019-05-16T16:37:12.622Z,17.9
2019-05-16T16:42:14.803Z,17.700001
2019-05-16T16:47:17.748Z,17.700001
2019-05-16T16:52:19.395Z,17.6
2019-05-16T16:57:21.857Z,17.6
2019-05-16T17:02:24.068Z,17.6
2019-05-16T17:07:27.368Z,17.4
2019-05-16T17:12:28.680Z,17.5
2019-05-16T17:17:30.898Z,17.700001
2019-05-16T17:22:33.157Z,17.5
2019-05-16T17:27:37.711Z,17.200001
2019-05-16T17:32:37.824Z,16.9
2019-05-16T17:37:40.157Z,16.700001
2019-05-16T17:42:42.444Z,16.5
2019-05-16T17:47:46.623Z,16.5
2019-05-16T17:52:47.831Z,16.6
2019-05-16T17:57:49.230Z,16.6
2019-05-16T18:02:51.450Z,16.299999
2019-05-16T18:07:53.831Z,16.1
2019-05-16T18:12:56.814Z,15.8
2019-05-16T18:17:58.461Z,15.7
2019-05-16T18:23:00.696Z,15.5
2019-05-16T18:28:03.121Z,15.4
2019-05-16T18:33:07.413Z,15.2
2019-05-16T18:38:07.625Z,15.1
2019-05-16T18:43:09.845Z,15
2019-05-16T18:48:12.139Z,14.9
2019-05-16T18:53:14.479Z,14.9
2019-05-16T18:58:18.027Z,15
2019-05-16T19:03:19.120Z,15
2019-05-16T19:08:21.438Z,14.9
2019-05-16T19:13:23.809Z,14.8
2019-05-16T19:18:26.373Z,14.8
2019-05-16T19:23:28.432Z,14.8
2019-05-16T19:28:30.540Z,14.7
2019-05-16T19:33:32.866Z,14.6
2019-05-16T19:38:37.522Z,14.4
2019-05-16T19:43:37.471Z,14.2
2019-05-16T19:48:39.757Z,14.1
2019-05-16T19:53:42.102Z,13.9
2019-05-16T19:58:46.649Z,13.7
2019-05-16T20:03:47.170Z,13.7
2019-05-16T20:08:48.891Z,13.5
2019-05-16T20:13:51.613Z,13.5
2019-05-16T20:18:56.170Z,13.5
2019-05-16T20:23:56.798Z,13.5
2019-05-16T20:28:59.471Z,13.5
2019-05-16T20:34:00.393Z,13.4
2019-05-16T20:39:02.759Z,13.3
2019-05-16T20:44:06.612Z,13.2
2019-05-16T20:49:08.175Z,13
2019-05-16T20:54:09.499Z,12.8
2019-05-16T20:59:11.870Z,12.7
2019-05-16T21:04:14.179Z,12.6
2019-05-16T21:09:16.927Z,12.6
2019-05-16T21:14:18.948Z,12.7
2019-05-16T21:19:20.981Z,12.7
2019-05-16T21:24:23.345Z,12.7
2019-05-16T21:29:27.656Z,12.6
2019-05-16T21:34:28.206Z,12.5
2019-05-16T21:39:30.162Z,12.4
2019-05-16T21:44:32.452Z,12.4
2019-05-16T21:49:36.609Z,12.3
2019-05-16T21:54:36.984Z,12.2
2019-05-16T21:59:39.341Z,12.2
2019-05-16T22:04:41.711Z,12.1
2019-05-16T22:09:43.953Z,12
2019-05-16T22:14:46.683Z,11.9
2019-05-16T22:19:48.698Z,11.9
2019-05-16T22:24:50.855Z,11.9
2019-05-16T22:29:53.156Z,11.9
2019-05-16T22:34:57.002Z,11.8
2019-05-16T22:39:59.725Z,11.7
2019-05-16T22:45:00.031Z,11.6
2019-05-16T22:50:02.265Z,11.6
2019-05-16T22:55:04.727Z,11.6
2019-05-16T23:00:07.585Z,11.6
2019-05-16T23:05:09.140Z,11.7
2019-05-16T23:10:11.396Z,11.8
2019-05-16T23:15:13.727Z,11.8
2019-05-16T23:20:17.059Z,11.8
2019-05-16T23:25:18.417Z,11.8
2019-05-16T23:30:20.636Z,11.8
2019-05-16T23:35:22.949Z,11.8
2019-05-16T23:40:25.480Z,11.8
2019-05-16T23:45:27.578Z,11.8
2019-05-16T23:50:29.859Z,11.7
2019-05-16T23:55:32.094Z,11.6
